sensor_id;sensor_type;location;lat;lon;timestamp;P1;durP1;ratioP1;P2;durP2;ratioP2
16139;SDS011;8175;49.326;12.690;2023-06-10T00:00:45;4.27;;;3.87;;
16139;SDS011;8175;49.326;12.690;2023-06-10T00:03:11;4.07;;;3.77;;
16139;SDS011;8175;49.326;12.690;2023-06-10T00:05:41;4.13;;;3.77;;
16139;SDS011;8175;49.326;12.690;2023-06-10T00:08:07;4.33;;;3.93;;
16139;SDS011;8175;49.326;12.690;2023-06-10T00:10:35;4.53;;;4.13;;
16139;SDS011;8175;49.326;12.690;2023-06-10T00:13:04;4.80;;;4.40;;
16139;SDS011;8175;49.326;12.690;2023-06-10T00:15:32;4.20;;;3.80;;
16139;SDS011;8175;49.326;12.690;2023-06-10T00:17:58;4.47;;;4.13;;
16139;SDS011;8175;49.326;12.690;2023-06-10T00:20:24;4.40;;;4.00;;
16139;SDS011;8175;49.326;12.690;2023-06-10T00:22:50;4.77;;;4.33;;
16139;SDS011;8175;49.326;12.690;2023-06-10T00:25:16;5.00;;;4.47;;
16139;SDS011;8175;49.326;12.690;2023-06-10T00:27:41;4.97;;;4.50;;
16139;SDS011;8175;49.326;12.690;2023-06-10T00:30:07;5.17;;;4.63;;
16139;SDS011;8175;49.326;12.690;2023-06-10T00:32:34;5.43;;;4.47;;
16139;SDS011;8175;49.326;12.690;2023-06-10T00:35:00;4.80;;;4.30;;
16139;SDS011;8175;49.326;12.690;2023-06-10T00:37:26;5.30;;;4.80;;
16139;SDS011;8175;49.326;12.690;2023-06-10T00:39:53;5.50;;;5.00;;
16139;SDS011;8175;49.326;12.690;2023-06-10T00:42:19;4.50;;;4.10;;
16139;SDS011;8175;49.326;12.690;2023-06-10T00:44:45;5.00;;;4.60;;
16139;SDS011;8175;49.326;12.690;2023-06-10T00:47:10;5.30;;;4.80;;
16139;SDS011;8175;49.326;12.690;2023-06-10T00:49:36;5.40;;;4.90;;
16139;SDS011;8175;49.326;12.690;2023-06-10T00:52:02;5.20;;;4.70;;
16139;SDS011;8175;49.326;12.690;2023-06-10T00:54:29;5.13;;;4.63;;
16139;SDS011;8175;49.326;12.690;2023-06-10T00:56:55;5.67;;;5.17;;
16139;SDS011;8175;49.326;12.690;2023-06-10T00:59:22;5.20;;;4.70;;
16139;SDS011;8175;49.326;12.690;2023-06-10T01:01:50;5.97;;;5.20;;
16139;SDS011;8175;49.326;12.690;2023-06-10T01:04:17;6.93;;;6.30;;
16139;SDS011;8175;49.326;12.690;2023-06-10T01:09:33;6.60;;;5.90;;
16139;SDS011;8175;49.326;12.690;2023-06-10T01:12:15;6.07;;;5.47;;
16139;SDS011;8175;49.326;12.690;2023-06-10T01:14:45;6.87;;;5.60;;
16139;SDS011;8175;49.326;12.690;2023-06-10T01:17:13;7.20;;;6.50;;
16139;SDS011;8175;49.326;12.690;2023-06-10T01:19:41;6.70;;;5.90;;
16139;SDS011;8175;49.326;12.690;2023-06-10T01:22:08;6.63;;;5.87;;
16139;SDS011;8175;49.326;12.690;2023-06-10T01:24:35;6.43;;;5.83;;
16139;SDS011;8175;49.326;12.690;2023-06-10T01:27:03;7.20;;;6.23;;
16139;SDS011;8175;49.326;12.690;2023-06-10T01:29:43;7.23;;;6.53;;
16139;SDS011;8175;49.326;12.690;2023-06-10T01:32:21;7.37;;;6.67;;
16139;SDS011;8175;49.326;12.690;2023-06-10T01:34:54;7.17;;;6.47;;
16139;SDS011;8175;49.326;12.690;2023-06-10T01:37:21;7.67;;;6.77;;
16139;SDS011;8175;49.326;12.690;2023-06-10T01:39:51;7.70;;;6.80;;
16139;SDS011;8175;49.326;12.690;2023-06-10T01:42:19;8.50;;;7.27;;
16139;SDS011;8175;49.326;12.690;2023-06-10T01:44:46;6.67;;;6.03;;
16139;SDS011;8175;49.326;12.690;2023-06-10T01:47:11;7.40;;;6.63;;
16139;SDS011;8175;49.326;12.690;2023-06-10T01:49:37;7.07;;;6.20;;
16139;SDS011;8175;49.326;12.690;2023-06-10T01:52:03;7.77;;;6.83;;
16139;SDS011;8175;49.326;12.690;2023-06-10T01:54:29;9.00;;;7.90;;
16139;SDS011;8175;49.326;12.690;2023-06-10T01:56:55;8.57;;;7.67;;
16139;SDS011;8175;49.326;12.690;2023-06-10T01:59:20;9.10;;;8.03;;
16139;SDS011;8175;49.326;12.690;2023-06-10T02:01:46;9.47;;;8.57;;
16139;SDS011;8175;49.326;12.690;2023-06-10T02:04:11;8.53;;;7.63;;
16139;SDS011;8175;49.326;12.690;2023-06-10T02:06:37;9.47;;;8.43;;
16139;SDS011;8175;49.326;12.690;2023-06-10T02:09:03;9.20;;;7.37;;
16139;SDS011;8175;49.326;12.690;2023-06-10T02:11:29;10.30;;;8.83;;
16139;SDS011;8175;49.326;12.690;2023-06-10T02:13:54;10.37;;;9.10;;
16139;SDS011;8175;49.326;12.690;2023-06-10T02:16:20;9.93;;;8.53;;
16139;SDS011;8175;49.326;12.690;2023-06-10T02:18:46;9.67;;;8.43;;
16139;SDS011;8175;49.326;12.690;2023-06-10T02:21:13;11.40;;;8.97;;
16139;SDS011;8175;49.326;12.690;2023-06-10T02:23:39;9.57;;;7.63;;
16139;SDS011;8175;49.326;12.690;2023-06-10T02:26:05;8.77;;;7.63;;
16139;SDS011;8175;49.326;12.690;2023-06-10T02:28:31;9.30;;;8.30;;
16139;SDS011;8175;49.326;12.690;2023-06-10T02:30:56;9.83;;;8.27;;
16139;SDS011;8175;49.326;12.690;2023-06-10T02:33:22;9.40;;;8.50;;
16139;SDS011;8175;49.326;12.690;2023-06-10T02:35:49;10.13;;;9.10;;
16139;SDS011;8175;49.326;12.690;2023-06-10T02:38:14;9.77;;;8.43;;
16139;SDS011;8175;49.326;12.690;2023-06-10T02:40:40;9.23;;;8.30;;
16139;SDS011;8175;49.326;12.690;2023-06-10T02:43:06;12.63;;;9.80;;
16139;SDS011;8175;49.326;12.690;2023-06-10T02:45:31;11.43;;;8.90;;
16139;SDS011;8175;49.326;12.690;2023-06-10T02:47:57;9.80;;;8.77;;
16139;SDS011;8175;49.326;12.690;2023-06-10T02:50:22;10.70;;;9.20;;
16139;SDS011;8175;49.326;12.690;2023-06-10T02:52:48;10.90;;;9.63;;
16139;SDS011;8175;49.326;12.690;2023-06-10T02:55:15;11.27;;;10.00;;
16139;SDS011;8175;49.326;12.690;2023-06-10T02:57:40;13.20;;;11.03;;
16139;SDS011;8175;49.326;12.690;2023-06-10T03:00:06;12.40;;;10.60;;
16139;SDS011;8175;49.326;12.690;2023-06-10T03:02:35;10.43;;;8.80;;
16139;SDS011;8175;49.326;12.690;2023-06-10T03:05:05;10.40;;;9.30;;
16139;SDS011;8175;49.326;12.690;2023-06-10T03:07:35;11.30;;;9.07;;
16139;SDS011;8175;49.326;12.690;2023-06-10T03:10:01;11.10;;;9.93;;
16139;SDS011;8175;49.326;12.690;2023-06-10T03:12:26;11.23;;;9.87;;
16139;SDS011;8175;49.326;12.690;2023-06-10T03:14:52;11.93;;;9.03;;
16139;SDS011;8175;49.326;12.690;2023-06-10T03:17:17;9.87;;;8.77;;
16139;SDS011;8175;49.326;12.690;2023-06-10T03:19:43;11.37;;;9.93;;
16139;SDS011;8175;49.326;12.690;2023-06-10T03:22:13;10.20;;;8.20;;
16139;SDS011;8175;49.326;12.690;2023-06-10T03:24:40;10.80;;;9.70;;
16139;SDS011;8175;49.326;12.690;2023-06-10T03:27:12;11.00;;;9.60;;
16139;SDS011;8175;49.326;12.690;2023-06-10T03:29:38;10.93;;;9.20;;
16139;SDS011;8175;49.326;12.690;2023-06-10T03:32:04;11.60;;;9.77;;
16139;SDS011;8175;49.326;12.690;2023-06-10T03:34:31;10.07;;;8.87;;
16139;SDS011;8175;49.326;12.690;2023-06-10T03:36:57;11.70;;;10.10;;
16139;SDS011;8175;49.326;12.690;2023-06-10T03:39:23;11.03;;;9.43;;
16139;SDS011;8175;49.326;12.690;2023-06-10T03:41:49;11.70;;;10.50;;
16139;SDS011;8175;49.326;12.690;2023-06-10T03:44:15;12.73;;;10.63;;
16139;SDS011;8175;49.326;12.690;2023-06-10T03:46:41;10.87;;;9.77;;
16139;SDS011;8175;49.326;12.690;2023-06-10T03:49:06;10.50;;;9.13;;
16139;SDS011;8175;49.326;12.690;2023-06-10T03:51:32;11.80;;;10.60;;
16139;SDS011;8175;49.326;12.690;2023-06-10T03:53:58;11.17;;;9.57;;
16139;SDS011;8175;49.326;12.690;2023-06-10T03:56:23;13.13;;;11.03;;
16139;SDS011;8175;49.326;12.690;2023-06-10T03:58:50;15.80;;;12.17;;
16139;SDS011;8175;49.326;12.690;2023-06-10T04:01:16;16.23;;;12.60;;
16139;SDS011;8175;49.326;12.690;2023-06-10T04:03:43;15.93;;;11.67;;
16139;SDS011;8175;49.326;12.690;2023-06-10T04:06:09;14.30;;;11.17;;
16139;SDS011;8175;49.326;12.690;2023-06-10T04:08:34;13.13;;;11.53;;
16139;SDS011;8175;49.326;12.690;2023-06-10T04:11:02;14.50;;;11.57;;
16139;SDS011;8175;49.326;12.690;2023-06-10T04:13:28;12.47;;;10.90;;
16139;SDS011;8175;49.326;12.690;2023-06-10T04:15:53;15.40;;;12.10;;
16139;SDS011;8175;49.326;12.690;2023-06-10T04:18:22;12.80;;;11.27;;
16139;SDS011;8175;49.326;12.690;2023-06-10T04:20:47;12.80;;;11.33;;
16139;SDS011;8175;49.326;12.690;2023-06-10T04:23:13;13.17;;;11.40;;
16139;SDS011;8175;49.326;12.690;2023-06-10T04:25:39;11.37;;;10.17;;
16139;SDS011;8175;49.326;12.690;2023-06-10T04:28:04;12.27;;;10.93;;
16139;SDS011;8175;49.326;12.690;2023-06-10T04:30:30;13.03;;;11.60;;
16139;SDS011;8175;49.326;12.690;2023-06-10T04:32:56;13.23;;;11.17;;
16139;SDS011;8175;49.326;12.690;2023-06-10T04:35:22;13.37;;;11.83;;
16139;SDS011;8175;49.326;12.690;2023-06-10T04:37:48;13.80;;;11.43;;
16139;SDS011;8175;49.326;12.690;2023-06-10T04:40:13;11.97;;;10.67;;
16139;SDS011;8175;49.326;12.690;2023-06-10T04:42:40;12.97;;;11.57;;
16139;SDS011;8175;49.326;12.690;2023-06-10T04:45:07;11.67;;;10.10;;
16139;SDS011;8175;49.326;12.690;2023-06-10T04:47:33;13.23;;;10.47;;
16139;SDS011;8175;49.326;12.690;2023-06-10T04:50:02;12.87;;;11.43;;
16139;SDS011;8175;49.326;12.690;2023-06-10T04:52:29;11.80;;;10.50;;
16139;SDS011;8175;49.326;12.690;2023-06-10T04:54:54;10.70;;;9.57;;
16139;SDS011;8175;49.326;12.690;2023-06-10T04:57:20;10.20;;;9.17;;
16139;SDS011;8175;49.326;12.690;2023-06-10T04:59:46;11.20;;;9.97;;
16139;SDS011;8175;49.326;12.690;2023-06-10T05:02:12;10.83;;;9.63;;
16139;SDS011;8175;49.326;12.690;2023-06-10T05:04:38;10.80;;;9.70;;
16139;SDS011;8175;49.326;12.690;2023-06-10T05:07:04;12.53;;;11.07;;
16139;SDS011;8175;49.326;12.690;2023-06-10T05:09:30;13.50;;;10.73;;
16139;SDS011;8175;49.326;12.690;2023-06-10T05:11:55;10.17;;;9.03;;
16139;SDS011;8175;49.326;12.690;2023-06-10T05:14:21;15.00;;;11.93;;
16139;SDS011;8175;49.326;12.690;2023-06-10T05:16:50;11.87;;;10.63;;
16139;SDS011;8175;49.326;12.690;2023-06-10T05:19:15;12.47;;;10.90;;
16139;SDS011;8175;49.326;12.690;2023-06-10T05:21:44;13.20;;;11.40;;
16139;SDS011;8175;49.326;12.690;2023-06-10T05:24:10;11.23;;;10.07;;
16139;SDS011;8175;49.326;12.690;2023-06-10T05:26:36;10.97;;;9.97;;
16139;SDS011;8175;49.326;12.690;2023-06-10T05:29:03;11.13;;;10.03;;
16139;SDS011;8175;49.326;12.690;2023-06-10T05:31:29;11.23;;;10.10;;
16139;SDS011;8175;49.326;12.690;2023-06-10T05:33:55;10.10;;;9.20;;
16139;SDS011;8175;49.326;12.690;2023-06-10T05:36:20;9.63;;;8.70;;
16139;SDS011;8175;49.326;12.690;2023-06-10T05:38:46;7.50;;;6.80;;
16139;SDS011;8175;49.326;12.690;2023-06-10T05:41:12;9.80;;;8.90;;
16139;SDS011;8175;49.326;12.690;2023-06-10T05:43:37;9.50;;;8.60;;
16139;SDS011;8175;49.326;12.690;2023-06-10T05:46:03;8.90;;;8.10;;
16139;SDS011;8175;49.326;12.690;2023-06-10T05:48:28;8.77;;;7.93;;
16139;SDS011;8175;49.326;12.690;2023-06-10T05:50:54;7.87;;;7.07;;
16139;SDS011;8175;49.326;12.690;2023-06-10T05:53:20;7.77;;;6.90;;
16139;SDS011;8175;49.326;12.690;2023-06-10T05:55:45;8.70;;;7.90;;
16139;SDS011;8175;49.326;12.690;2023-06-10T05:58:12;7.20;;;6.60;;
16139;SDS011;8175;49.326;12.690;2023-06-10T06:00:38;7.23;;;6.53;;
16139;SDS011;8175;49.326;12.690;2023-06-10T06:03:08;5.80;;;5.30;;
16139;SDS011;8175;49.326;12.690;2023-06-10T06:05:34;6.90;;;6.07;;
16139;SDS011;8175;49.326;12.690;2023-06-10T06:08:02;5.80;;;5.30;;
16139;SDS011;8175;49.326;12.690;2023-06-10T06:10:28;5.23;;;4.73;;
16139;SDS011;8175;49.326;12.690;2023-06-10T06:12:54;5.33;;;4.93;;
16139;SDS011;8175;49.326;12.690;2023-06-10T06:15:20;5.20;;;4.20;;
16139;SDS011;8175;49.326;12.690;2023-06-10T06:17:46;5.10;;;4.43;;
16139;SDS011;8175;49.326;12.690;2023-06-10T06:20:11;5.07;;;4.67;;
16139;SDS011;8175;49.326;12.690;2023-06-10T06:22:37;4.77;;;4.37;;
16139;SDS011;8175;49.326;12.690;2023-06-10T06:25:03;4.87;;;4.37;;
16139;SDS011;8175;49.326;12.690;2023-06-10T06:27:29;4.67;;;4.27;;
16139;SDS011;8175;49.326;12.690;2023-06-10T06:29:55;4.57;;;4.17;;
16139;SDS011;8175;49.326;12.690;2023-06-10T06:32:21;4.67;;;4.27;;
16139;SDS011;8175;49.326;12.690;2023-06-10T06:34:47;5.13;;;4.57;;
16139;SDS011;8175;49.326;12.690;2023-06-10T06:37:19;4.93;;;4.53;;
16139;SDS011;8175;49.326;12.690;2023-06-10T06:39:51;4.90;;;4.50;;
16139;SDS011;8175;49.326;12.690;2023-06-10T06:42:17;5.27;;;4.87;;
16139;SDS011;8175;49.326;12.690;2023-06-10T06:44:43;4.13;;;3.83;;
16139;SDS011;8175;49.326;12.690;2023-06-10T06:47:09;5.27;;;4.80;;
16139;SDS011;8175;49.326;12.690;2023-06-10T06:49:35;5.47;;;5.00;;
16139;SDS011;8175;49.326;12.690;2023-06-10T06:52:01;5.70;;;4.67;;
16139;SDS011;8175;49.326;12.690;2023-06-10T06:54:27;5.30;;;4.80;;
16139;SDS011;8175;49.326;12.690;2023-06-10T06:56:52;5.90;;;5.10;;
16139;SDS011;8175;49.326;12.690;2023-06-10T06:59:18;5.73;;;5.23;;
16139;SDS011;8175;49.326;12.690;2023-06-10T07:01:46;5.50;;;5.00;;
16139;SDS011;8175;49.326;12.690;2023-06-10T07:04:14;6.13;;;5.60;;
16139;SDS011;8175;49.326;12.690;2023-06-10T07:06:40;5.87;;;5.37;;
16139;SDS011;8175;49.326;12.690;2023-06-10T07:09:07;6.03;;;5.53;;
16139;SDS011;8175;49.326;12.690;2023-06-10T07:11:33;5.37;;;4.97;;
16139;SDS011;8175;49.326;12.690;2023-06-10T07:13:59;5.73;;;5.23;;
16139;SDS011;8175;49.326;12.690;2023-06-10T07:16:25;5.47;;;4.97;;
16139;SDS011;8175;49.326;12.690;2023-06-10T07:18:50;5.60;;;5.10;;
16139;SDS011;8175;49.326;12.690;2023-06-10T07:21:17;5.13;;;4.70;;
16139;SDS011;8175;49.326;12.690;2023-06-10T07:23:43;5.20;;;4.73;;
16139;SDS011;8175;49.326;12.690;2023-06-10T07:26:09;4.53;;;4.13;;
16139;SDS011;8175;49.326;12.690;2023-06-10T07:28:36;5.35;;;4.85;;
16139;SDS011;8175;49.326;12.690;2023-06-10T07:31:02;4.95;;;4.47;;
16139;SDS011;8175;49.326;12.690;2023-06-10T07:33:28;5.03;;;4.63;;
16139;SDS011;8175;49.326;12.690;2023-06-10T07:35:54;5.30;;;4.80;;
16139;SDS011;8175;49.326;12.690;2023-06-10T07:38:19;5.22;;;4.72;;
16139;SDS011;8175;49.326;12.690;2023-06-10T07:40:45;5.32;;;4.90;;
16139;SDS011;8175;49.326;12.690;2023-06-10T07:43:11;6.25;;;5.65;;
16139;SDS011;8175;49.326;12.690;2023-06-10T07:45:37;4.88;;;4.47;;
16139;SDS011;8175;49.326;12.690;2023-06-10T07:48:05;5.43;;;4.80;;
16139;SDS011;8175;49.326;12.690;2023-06-10T07:50:30;5.30;;;4.80;;
16139;SDS011;8175;49.326;12.690;2023-06-10T07:52:56;5.50;;;5.10;;
16139;SDS011;8175;49.326;12.690;2023-06-10T07:55:22;4.88;;;4.50;;
16139;SDS011;8175;49.326;12.690;2023-06-10T07:57:47;4.93;;;4.53;;
16139;SDS011;8175;49.326;12.690;2023-06-10T08:00:13;4.90;;;4.50;;
16139;SDS011;8175;49.326;12.690;2023-06-10T08:02:39;4.68;;;4.28;;
16139;SDS011;8175;49.326;12.690;2023-06-10T08:05:05;5.53;;;5.05;;
16139;SDS011;8175;49.326;12.690;2023-06-10T08:07:30;5.93;;;5.43;;
16139;SDS011;8175;49.326;12.690;2023-06-10T08:09:57;5.18;;;4.72;;
16139;SDS011;8175;49.326;12.690;2023-06-10T08:12:22;5.95;;;5.25;;
16139;SDS011;8175;49.326;12.690;2023-06-10T08:14:48;5.13;;;4.63;;
16139;SDS011;8175;49.326;12.690;2023-06-10T08:17:14;5.20;;;4.80;;
16139;SDS011;8175;49.326;12.690;2023-06-10T08:19:39;6.00;;;5.40;;
16139;SDS011;8175;49.326;12.690;2023-06-10T08:22:05;5.40;;;4.90;;
16139;SDS011;8175;49.326;12.690;2023-06-10T08:24:31;5.63;;;5.20;;
16139;SDS011;8175;49.326;12.690;2023-06-10T08:26:56;5.80;;;5.40;;
16139;SDS011;8175;49.326;12.690;2023-06-10T08:29:23;5.85;;;5.45;;
16139;SDS011;8175;49.326;12.690;2023-06-10T08:31:49;6.85;;;6.30;;
16139;SDS011;8175;49.326;12.690;2023-06-10T08:34:14;6.15;;;5.65;;
16139;SDS011;8175;49.326;12.690;2023-06-10T08:36:40;5.45;;;5.05;;
16139;SDS011;8175;49.326;12.690;2023-06-10T08:39:05;6.60;;;6.00;;
16139;SDS011;8175;49.326;12.690;2023-06-10T08:41:35;5.95;;;5.53;;
16139;SDS011;8175;49.326;12.690;2023-06-10T08:46:47;5.82;;;5.43;;
16139;SDS011;8175;49.326;12.690;2023-06-10T08:49:23;5.75;;;5.25;;
16139;SDS011;8175;49.326;12.690;2023-06-10T08:51:51;5.93;;;5.53;;
16139;SDS011;8175;49.326;12.690;2023-06-10T08:54:25;6.53;;;6.03;;
16139;SDS011;8175;49.326;12.690;2023-06-10T08:56:52;6.35;;;5.85;;
16139;SDS011;8175;49.326;12.690;2023-06-10T08:59:20;7.03;;;6.43;;
16139;SDS011;8175;49.326;12.690;2023-06-10T09:01:47;6.88;;;6.28;;
16139;SDS011;8175;49.326;12.690;2023-06-10T09:04:13;6.20;;;5.70;;
16139;SDS011;8175;49.326;12.690;2023-06-10T09:06:39;5.75;;;5.35;;
16139;SDS011;8175;49.326;12.690;2023-06-10T09:09:06;5.78;;;5.38;;
16139;SDS011;8175;49.326;12.690;2023-06-10T09:11:32;6.28;;;5.75;;
16139;SDS011;8175;49.326;12.690;2023-06-10T09:13:58;6.05;;;5.60;;
16139;SDS011;8175;49.326;12.690;2023-06-10T09:16:24;6.43;;;5.93;;
16139;SDS011;8175;49.326;12.690;2023-06-10T09:18:50;6.18;;;5.57;;
16139;SDS011;8175;49.326;12.690;2023-06-10T09:21:21;6.00;;;5.47;;
16139;SDS011;8175;49.326;12.690;2023-06-10T09:23:47;6.13;;;5.63;;
16139;SDS011;8175;49.326;12.690;2023-06-10T09:26:13;7.20;;;6.60;;
16139;SDS011;8175;49.326;12.690;2023-06-10T09:28:39;6.07;;;5.65;;
16139;SDS011;8175;49.326;12.690;2023-06-10T09:31:07;6.68;;;6.03;;
16139;SDS011;8175;49.326;12.690;2023-06-10T09:33:36;6.85;;;6.35;;
16139;SDS011;8175;49.326;12.690;2023-06-10T09:36:04;5.65;;;5.20;;
16139;SDS011;8175;49.326;12.690;2023-06-10T09:38:30;6.15;;;5.68;;
16139;SDS011;8175;49.326;12.690;2023-06-10T09:40:57;6.07;;;5.60;;
16139;SDS011;8175;49.326;12.690;2023-06-10T09:43:24;5.65;;;5.18;;
16139;SDS011;8175;49.326;12.690;2023-06-10T09:46:17;7.35;;;6.00;;
16139;SDS011;8175;49.326;12.690;2023-06-10T09:48:44;5.88;;;5.38;;
16139;SDS011;8175;49.326;12.690;2023-06-10T09:51:11;6.00;;;5.57;;
16139;SDS011;8175;49.326;12.690;2023-06-10T09:53:38;5.20;;;4.82;;
16139;SDS011;8175;49.326;12.690;2023-06-10T09:56:04;5.85;;;5.45;;
16139;SDS011;8175;49.326;12.690;2023-06-10T09:58:39;6.07;;;5.57;;
16139;SDS011;8175;49.326;12.690;2023-06-10T10:01:08;6.35;;;5.85;;
16139;SDS011;8175;49.326;12.690;2023-06-10T10:03:51;6.35;;;5.85;;
16139;SDS011;8175;49.326;12.690;2023-06-10T10:06:17;5.63;;;5.22;;
16139;SDS011;8175;49.326;12.690;2023-06-10T10:08:47;5.47;;;5.00;;
16139;SDS011;8175;49.326;12.690;2023-06-10T10:11:16;5.10;;;4.70;;
16139;SDS011;8175;49.326;12.690;2023-06-10T10:13:43;4.47;;;4.18;;
16139;SDS011;8175;49.326;12.690;2023-06-10T10:16:23;5.40;;;5.00;;
16139;SDS011;8175;49.326;12.690;2023-06-10T10:19:00;4.35;;;4.00;;
16139;SDS011;8175;49.326;12.690;2023-06-10T10:21:32;4.30;;;4.00;;
16139;SDS011;8175;49.326;12.690;2023-06-10T10:24:05;4.70;;;4.30;;
16139;SDS011;8175;49.326;12.690;2023-06-10T10:26:43;4.03;;;3.72;;
16139;SDS011;8175;49.326;12.690;2023-06-10T10:31:50;4.20;;;3.90;;
16139;SDS011;8175;49.326;12.690;2023-06-10T10:34:21;4.40;;;4.10;;
16139;SDS011;8175;49.326;12.690;2023-06-10T10:36:55;4.60;;;4.30;;
16139;SDS011;8175;49.326;12.690;2023-06-10T10:39:21;4.32;;;4.03;;
16139;SDS011;8175;49.326;12.690;2023-06-10T10:41:47;4.10;;;3.67;;
16139;SDS011;8175;49.326;12.690;2023-06-10T10:44:15;3.28;;;2.97;;
16139;SDS011;8175;49.326;12.690;2023-06-10T10:46:42;3.40;;;3.20;;
16139;SDS011;8175;49.326;12.690;2023-06-10T10:49:15;3.35;;;3.15;;
16139;SDS011;8175;49.326;12.690;2023-06-10T10:51:59;3.63;;;3.33;;
16139;SDS011;8175;49.326;12.690;2023-06-10T10:57:18;3.88;;;3.58;;
16139;SDS011;8175;49.326;12.690;2023-06-10T10:59:52;3.35;;;3.15;;
16139;SDS011;8175;49.326;12.690;2023-06-10T11:02:37;3.80;;;3.45;;
16139;SDS011;8175;49.326;12.690;2023-06-10T11:05:07;3.90;;;3.60;;
16139;SDS011;8175;49.326;12.690;2023-06-10T11:07:33;3.90;;;3.60;;
16139;SDS011;8175;49.326;12.690;2023-06-10T11:10:20;3.33;;;3.13;;
16139;SDS011;8175;49.326;12.690;2023-06-10T11:12:56;3.95;;;3.40;;
16139;SDS011;8175;49.326;12.690;2023-06-10T11:15:23;3.80;;;3.42;;
16139;SDS011;8175;49.326;12.690;2023-06-10T11:28:38;4.00;;;3.47;;
16139;SDS011;8175;49.326;12.690;2023-06-10T11:31:04;3.80;;;3.50;;
16139;SDS011;8175;49.326;12.690;2023-06-10T11:33:30;3.50;;;3.13;;
16139;SDS011;8175;49.326;12.690;2023-06-10T11:35:56;3.20;;;3.00;;
16139;SDS011;8175;49.326;12.690;2023-06-10T11:38:23;3.97;;;3.50;;
16139;SDS011;8175;49.326;12.690;2023-06-10T11:40:49;3.88;;;3.58;;
16139;SDS011;8175;49.326;12.690;2023-06-10T11:43:18;3.38;;;3.17;;
16139;SDS011;8175;49.326;12.690;2023-06-10T11:45:45;3.33;;;3.13;;
16139;SDS011;8175;49.326;12.690;2023-06-10T11:48:12;3.92;;;3.53;;
16139;SDS011;8175;49.326;12.690;2023-06-10T11:50:38;3.75;;;3.47;;
16139;SDS011;8175;49.326;12.690;2023-06-10T11:53:04;3.70;;;3.40;;
16139;SDS011;8175;49.326;12.690;2023-06-10T11:55:42;3.83;;;3.20;;
16139;SDS011;8175;49.326;12.690;2023-06-10T11:58:13;3.30;;;3.00;;
16139;SDS011;8175;49.326;12.690;2023-06-10T12:00:49;3.05;;;2.85;;
16139;SDS011;8175;49.326;12.690;2023-06-10T12:03:16;3.30;;;3.10;;
16139;SDS011;8175;49.326;12.690;2023-06-10T12:05:57;3.47;;;3.28;;
16139;SDS011;8175;49.326;12.690;2023-06-10T12:08:29;3.40;;;3.20;;
16139;SDS011;8175;49.326;12.690;2023-06-10T12:10:55;3.05;;;2.85;;
16139;SDS011;8175;49.326;12.690;2023-06-10T12:13:22;3.47;;;3.17;;
16139;SDS011;8175;49.326;12.690;2023-06-10T12:15:51;2.90;;;2.70;;
16139;SDS011;8175;49.326;12.690;2023-06-10T12:18:20;2.55;;;2.38;;
16139;SDS011;8175;49.326;12.690;2023-06-10T12:20:47;2.70;;;2.50;;
16139;SDS011;8175;49.326;12.690;2023-06-10T12:23:15;2.60;;;2.45;;
16139;SDS011;8175;49.326;12.690;2023-06-10T12:25:51;2.80;;;2.60;;
16139;SDS011;8175;49.326;12.690;2023-06-10T12:28:21;3.92;;;2.60;;
16139;SDS011;8175;49.326;12.690;2023-06-10T12:30:51;2.97;;;2.78;;
16139;SDS011;8175;49.326;12.690;2023-06-10T12:33:17;2.40;;;2.30;;
16139;SDS011;8175;49.326;12.690;2023-06-10T12:35:49;3.10;;;2.80;;
16139;SDS011;8175;49.326;12.690;2023-06-10T12:38:22;3.10;;;2.90;;
16139;SDS011;8175;49.326;12.690;2023-06-10T12:40:50;4.20;;;3.30;;
16139;SDS011;8175;49.326;12.690;2023-06-10T12:43:20;3.55;;;3.30;;
16139;SDS011;8175;49.326;12.690;2023-06-10T12:45:46;3.72;;;3.45;;
16139;SDS011;8175;49.326;12.690;2023-06-10T12:48:17;3.45;;;3.17;;
16139;SDS011;8175;49.326;12.690;2023-06-10T12:50:47;4.82;;;3.63;;
16139;SDS011;8175;49.326;12.690;2023-06-10T12:53:23;4.03;;;3.72;;
16139;SDS011;8175;49.326;12.690;2023-06-10T12:55:51;3.50;;;3.30;;
16139;SDS011;8175;49.326;12.690;2023-06-10T12:58:19;4.00;;;3.70;;
16139;SDS011;8175;49.326;12.690;2023-06-10T13:00:45;4.22;;;3.92;;
16139;SDS011;8175;49.326;12.690;2023-06-10T13:03:11;5.15;;;4.65;;
16139;SDS011;8175;49.326;12.690;2023-06-10T13:05:36;5.55;;;5.07;;
16139;SDS011;8175;49.326;12.690;2023-06-10T13:08:04;5.72;;;5.05;;
16139;SDS011;8175;49.326;12.690;2023-06-10T13:10:30;6.63;;;5.93;;
16139;SDS011;8175;49.326;12.690;2023-06-10T13:12:56;6.40;;;5.90;;
16139;SDS011;8175;49.326;12.690;2023-06-10T13:15:22;6.80;;;6.25;;
16139;SDS011;8175;49.326;12.690;2023-06-10T13:17:47;7.18;;;6.57;;
16139;SDS011;8175;49.326;12.690;2023-06-10T13:20:15;7.20;;;6.50;;
16139;SDS011;8175;49.326;12.690;2023-06-10T13:22:42;7.07;;;6.47;;
16139;SDS011;8175;49.326;12.690;2023-06-10T13:25:07;6.70;;;6.20;;
16139;SDS011;8175;49.326;12.690;2023-06-10T13:27:34;7.10;;;6.43;;
16139;SDS011;8175;49.326;12.690;2023-06-10T13:30:07;7.35;;;6.75;;
16139;SDS011;8175;49.326;12.690;2023-06-10T13:32:34;6.95;;;6.35;;
16139;SDS011;8175;49.326;12.690;2023-06-10T13:35:01;7.28;;;6.68;;
16139;SDS011;8175;49.326;12.690;2023-06-10T13:37:26;6.18;;;5.68;;
16139;SDS011;8175;49.326;12.690;2023-06-10T13:39:52;7.03;;;6.45;;
16139;SDS011;8175;49.326;12.690;2023-06-10T13:42:18;6.40;;;5.80;;
16139;SDS011;8175;49.326;12.690;2023-06-10T13:44:44;6.88;;;6.20;;
16139;SDS011;8175;49.326;12.690;2023-06-10T13:47:10;5.90;;;5.40;;
16139;SDS011;8175;49.326;12.690;2023-06-10T13:49:36;5.78;;;5.38;;
16139;SDS011;8175;49.326;12.690;2023-06-10T13:52:02;5.47;;;4.97;;
16139;SDS011;8175;49.326;12.690;2023-06-10T13:54:28;5.57;;;5.07;;
16139;SDS011;8175;49.326;12.690;2023-06-10T13:56:54;5.43;;;4.85;;
16139;SDS011;8175;49.326;12.690;2023-06-10T13:59:19;5.40;;;4.90;;
16139;SDS011;8175;49.326;12.690;2023-06-10T14:01:46;5.40;;;4.82;;
16139;SDS011;8175;49.326;12.690;2023-06-10T14:04:12;4.72;;;4.35;;
16139;SDS011;8175;49.326;12.690;2023-06-10T14:06:37;4.75;;;4.35;;
16139;SDS011;8175;49.326;12.690;2023-06-10T14:09:03;4.25;;;3.95;;
16139;SDS011;8175;49.326;12.690;2023-06-10T14:11:29;4.82;;;4.38;;
16139;SDS011;8175;49.326;12.690;2023-06-10T14:13:55;4.22;;;3.85;;
16139;SDS011;8175;49.326;12.690;2023-06-10T14:16:24;5.20;;;4.70;;
16139;SDS011;8175;49.326;12.690;2023-06-10T14:18:50;7.60;;;4.88;;
16139;SDS011;8175;49.326;12.690;2023-06-10T14:21:18;4.63;;;4.22;;
16139;SDS011;8175;49.326;12.690;2023-06-10T14:23:44;4.97;;;4.57;;
16139;SDS011;8175;49.326;12.690;2023-06-10T14:26:10;4.95;;;4.50;;
16139;SDS011;8175;49.326;12.690;2023-06-10T14:28:36;5.88;;;4.40;;
16139;SDS011;8175;49.326;12.690;2023-06-10T14:31:02;5.53;;;5.03;;
16139;SDS011;8175;49.326;12.690;2023-06-10T14:33:27;5.13;;;4.72;;
16139;SDS011;8175;49.326;12.690;2023-06-10T14:35:53;4.50;;;3.78;;
16139;SDS011;8175;49.326;12.690;2023-06-10T14:38:19;4.63;;;4.22;;
16139;SDS011;8175;49.326;12.690;2023-06-10T14:40:45;5.32;;;4.82;;
16139;SDS011;8175;49.326;12.690;2023-06-10T14:43:10;7.00;;;4.57;;
16139;SDS011;8175;49.326;12.690;2023-06-10T14:45:36;5.13;;;4.63;;
16139;SDS011;8175;49.326;12.690;2023-06-10T14:48:03;5.68;;;4.50;;
16139;SDS011;8175;49.326;12.690;2023-06-10T14:50:30;6.15;;;4.93;;
16139;SDS011;8175;49.326;12.690;2023-06-10T14:52:55;5.68;;;5.10;;
16139;SDS011;8175;49.326;12.690;2023-06-10T14:55:21;5.13;;;4.50;;
16139;SDS011;8175;49.326;12.690;2023-06-10T14:57:50;5.10;;;4.68;;
16139;SDS011;8175;49.326;12.690;2023-06-10T15:00:15;7.10;;;4.93;;
16139;SDS011;8175;49.326;12.690;2023-06-10T15:02:44;6.30;;;4.95;;
16139;SDS011;8175;49.326;12.690;2023-06-10T15:05:13;6.68;;;4.75;;